createdAt,value
2018-09-06T00:01:22.051Z,15.50
2018-09-06T00:03:50.849Z,15.80
2018-09-06T00:06:19.585Z,16.73
2018-09-06T00:08:48.636Z,14.80
2018-09-06T00:11:18.132Z,17.07
2018-09-06T00:13:47.590Z,15.73
2018-09-06T00:16:16.186Z,18.03
2018-09-06T00:18:44.841Z,14.63
2018-09-06T00:21:13.390Z,16.50
2018-09-06T00:23:42.113Z,15.83
2018-09-06T00:26:10.865Z,16.63
2018-09-06T00:28:39.468Z,17.00
2018-09-06T00:31:08.115Z,15.93
2018-09-06T00:33:36.800Z,18.30
2018-09-06T00:36:05.474Z,16.13
2018-09-06T00:38:34.724Z,16.40
2018-09-06T00:41:03.296Z,16.23
2018-09-06T00:43:31.972Z,15.43
2018-09-06T00:46:01.365Z,14.70
2018-09-06T00:48:30.085Z,17.33
2018-09-06T00:50:58.736Z,15.80
2018-09-06T00:53:27.768Z,15.27
2018-09-06T00:55:56.826Z,16.10
2018-09-06T00:58:25.316Z,15.97
2018-09-06T01:00:54.009Z,16.83
2018-09-06T01:03:22.672Z,15.67
2018-09-06T01:05:51.324Z,15.30
2018-09-06T01:08:19.908Z,16.00
2018-09-06T01:10:49.667Z,18.33
2018-09-06T01:13:18.555Z,17.60
2018-09-06T01:15:47.292Z,17.27
2018-09-06T01:18:15.849Z,16.40
2018-09-06T01:20:44.515Z,16.13
2018-09-06T01:23:13.080Z,16.13
2018-09-06T01:25:47.001Z,15.60
2018-09-06T01:28:15.720Z,16.10
2018-09-06T01:30:44.270Z,15.97
2018-09-06T01:33:12.822Z,15.67
2018-09-06T01:35:46.787Z,15.17
2018-09-06T01:38:15.622Z,16.60
2018-09-06T01:40:45.035Z,14.57
2018-09-06T01:43:13.524Z,17.77
2018-09-06T01:45:42.254Z,17.93
2018-09-06T01:48:10.795Z,15.53
2018-09-06T01:50:39.287Z,15.57
2018-09-06T01:53:07.953Z,15.73
2018-09-06T01:55:36.450Z,15.37
2018-09-06T01:58:05.706Z,17.33
2018-09-06T02:00:34.291Z,19.43
2018-09-06T02:03:02.979Z,17.27
2018-09-06T02:05:36.311Z,16.97
2018-09-06T02:08:06.536Z,15.77
2018-09-06T02:10:35.631Z,15.33
2018-09-06T02:13:04.867Z,16.33
2018-09-06T02:15:33.923Z,15.10
2018-09-06T02:18:02.390Z,17.10
2018-09-06T02:20:31.698Z,15.50
2018-09-06T02:23:00.988Z,16.10
2018-09-06T02:25:30.365Z,15.00
2018-09-06T02:27:59.239Z,17.10
2018-09-06T02:30:27.870Z,15.97
2018-09-06T02:32:56.439Z,14.77
2018-09-06T02:35:25.056Z,17.50
2018-09-06T02:37:53.581Z,16.03
2018-09-06T02:40:27.552Z,18.63
2018-09-06T02:42:56.227Z,17.63
2018-09-06T02:45:25.503Z,16.37
2018-09-06T02:47:54.464Z,17.80
2018-09-06T02:50:28.299Z,16.10
2018-09-06T02:52:57.380Z,18.47
2018-09-06T02:55:27.363Z,16.93
2018-09-06T02:57:56.878Z,17.30
2018-09-06T03:00:28.122Z,15.77
2018-09-06T03:02:56.822Z,19.93
2018-09-06T03:05:26.423Z,17.17
2018-09-06T03:07:56.675Z,16.73
2018-09-06T03:10:27.440Z,16.20
2018-09-06T03:12:56.103Z,15.27
2018-09-06T03:15:25.414Z,14.90
2018-09-06T03:17:54.182Z,17.97
2018-09-06T03:20:23.005Z,16.37
2018-09-06T03:22:51.808Z,20.37
2018-09-06T03:25:20.408Z,16.30
2018-09-06T03:27:49.251Z,19.93
2018-09-06T03:30:18.716Z,15.57
2018-09-06T03:32:47.352Z,14.63
2018-09-06T03:35:16.202Z,15.83
2018-09-06T03:37:45.321Z,16.20
2018-09-06T03:40:13.858Z,18.23
2018-09-06T03:42:42.815Z,15.73
2018-09-06T03:45:11.982Z,16.90
2018-09-06T03:47:40.518Z,14.23
2018-09-06T03:50:09.068Z,15.73
2018-09-06T03:52:37.670Z,18.37
2018-09-06T03:55:06.350Z,18.60
2018-09-06T03:57:34.954Z,18.73
2018-09-06T04:00:03.857Z,19.70
2018-09-06T04:02:32.352Z,22.70
2018-09-06T04:05:01.317Z,22.17
2018-09-06T04:07:29.876Z,20.67
2018-09-06T04:09:58.495Z,23.10
2018-09-06T04:12:27.233Z,30.37
2018-09-06T04:14:55.985Z,37.50
2018-09-06T04:17:24.843Z,21.30
2018-09-06T04:19:54.023Z,25.53
2018-09-06T04:22:22.548Z,25.70
2018-09-06T04:24:51.843Z,25.03
2018-09-06T04:27:21.108Z,19.63
2018-09-06T04:29:49.968Z,23.20
2018-09-06T04:32:18.467Z,19.17
2018-09-06T04:34:47.281Z,20.50
2018-09-06T04:37:15.959Z,22.80
2018-09-06T04:39:45.191Z,17.90
2018-09-06T04:42:14.071Z,20.87
2018-09-06T04:44:42.770Z,19.27
2018-09-06T04:47:11.988Z,20.97
2018-09-06T04:49:40.729Z,19.10
2018-09-06T04:52:10.183Z,19.07
2018-09-06T04:54:38.804Z,17.03
2018-09-06T04:57:07.716Z,22.10
2018-09-06T04:59:36.347Z,18.87
2018-09-06T05:02:04.976Z,21.80
2018-09-06T05:04:33.499Z,19.73
2018-09-06T05:07:02.361Z,23.43
2018-09-06T05:09:32.005Z,29.97
2018-09-06T05:12:00.650Z,21.97
2018-09-06T05:14:29.372Z,23.67
2018-09-06T05:16:57.960Z,19.87
2018-09-06T05:19:26.524Z,23.13
2018-09-06T05:21:55.174Z,25.20
2018-09-06T05:24:23.646Z,21.37
2018-09-06T05:26:52.551Z,21.77
2018-09-06T05:29:21.968Z,20.03
2018-09-06T05:31:50.676Z,21.90
2018-09-06T05:34:19.267Z,23.60
2018-09-06T05:36:47.767Z,21.07
2018-09-06T05:39:16.708Z,23.90
2018-09-06T05:41:45.483Z,24.67
2018-09-06T05:44:14.172Z,25.07
2018-09-06T05:46:51.210Z,23.20
2018-09-06T05:49:19.806Z,28.33
2018-09-06T05:51:48.417Z,24.13
2018-09-06T05:54:16.936Z,28.83
2018-09-06T05:56:46.187Z,26.20
2018-09-06T05:59:15.929Z,30.47
2018-09-06T06:01:44.632Z,27.37
2018-09-06T06:04:13.191Z,26.60
2018-09-06T06:06:42.040Z,21.17
2018-09-06T06:09:10.544Z,23.07
2018-09-06T06:11:39.223Z,19.03
2018-09-06T06:14:07.684Z,19.83
2018-09-06T06:16:37.010Z,17.97
2018-09-06T06:19:06.162Z,16.50
2018-09-06T06:21:34.740Z,15.33
2018-09-06T06:24:03.249Z,18.77
2018-09-06T06:26:31.949Z,18.37
2018-09-06T06:29:01.417Z,21.23
2018-09-06T06:31:30.065Z,19.13
2018-09-06T06:33:58.630Z,18.07
2018-09-06T06:36:27.282Z,18.73
2018-09-06T06:38:55.990Z,17.63
2018-09-06T06:41:24.583Z,19.20
2018-09-06T06:43:54.207Z,18.97
2018-09-06T06:46:23.598Z,15.37
2018-09-06T06:48:52.235Z,16.00
2018-09-06T06:51:20.971Z,15.43
2018-09-06T06:53:51.023Z,15.33
2018-09-06T06:56:19.632Z,15.10
2018-09-06T06:58:48.325Z,16.57
2018-09-06T07:01:17.047Z,16.17
2018-09-06T07:03:46.376Z,15.00
2018-09-06T07:06:15.896Z,15.13
2018-09-06T07:08:44.517Z,14.73
2018-09-06T07:11:13.055Z,14.90
2018-09-06T07:13:41.643Z,15.30
2018-09-06T07:16:10.215Z,14.13
2018-09-06T07:18:39.194Z,13.40
2018-09-06T07:21:07.983Z,13.67
2018-09-06T07:23:36.527Z,14.10
2018-09-06T07:26:05.080Z,17.50
2018-09-06T07:28:33.780Z,13.47
2018-09-06T07:31:02.603Z,14.53
2018-09-06T07:33:31.258Z,12.57
2018-09-06T07:36:00.340Z,12.80
2018-09-06T07:38:29.824Z,12.77
2018-09-06T07:40:58.480Z,13.07
2018-09-06T07:43:27.169Z,12.57
2018-09-06T07:45:55.806Z,12.97
2018-09-06T07:48:24.526Z,14.93
2018-09-06T07:50:53.849Z,13.00
2018-09-06T07:53:22.319Z,12.60
2018-09-06T07:55:51.622Z,12.20
2018-09-06T07:58:20.549Z,12.03
2018-09-06T08:00:49.113Z,11.77
2018-09-06T08:03:17.707Z,11.97
2018-09-06T08:05:46.477Z,12.07
2018-09-06T08:08:15.367Z,12.17
2018-09-06T08:10:44.023Z,11.87
2018-09-06T08:13:12.583Z,10.73
2018-09-06T08:15:41.283Z,13.23
2018-09-06T08:18:10.115Z,12.43
2018-09-06T08:20:38.750Z,10.90
2018-09-06T08:23:08.166Z,10.93
2018-09-06T08:25:37.131Z,11.23
2018-09-06T08:28:06.315Z,10.70
2018-09-06T08:30:35.029Z,10.33
2018-09-06T08:33:03.749Z,11.07
2018-09-06T08:35:32.301Z,10.33
2018-09-06T08:38:00.919Z,9.23
2018-09-06T08:40:29.764Z,8.50
2018-09-06T08:42:58.337Z,9.50
2018-09-06T08:45:26.969Z,10.00
2018-09-06T08:47:55.740Z,12.40
2018-09-06T08:50:25.428Z,9.13
2018-09-06T08:52:54.616Z,9.63
2018-09-06T08:55:23.759Z,9.73
2018-09-06T08:57:53.241Z,7.97
2018-09-06T09:00:22.164Z,7.57
2018-09-06T09:02:50.916Z,13.07
2018-09-06T09:05:19.705Z,9.17
2018-09-06T09:07:48.394Z,10.13
2018-09-06T09:10:17.230Z,8.23
2018-09-06T09:12:46.151Z,9.30
2018-09-06T09:15:15.076Z,11.60
2018-09-06T09:17:44.015Z,10.33
2018-09-06T09:20:12.585Z,7.93
2018-09-06T09:22:41.283Z,7.37
2018-09-06T09:25:10.591Z,9.93
2018-09-06T09:27:39.223Z,9.13
2018-09-06T09:30:07.946Z,6.50
2018-09-06T09:32:36.571Z,7.90
2018-09-06T09:35:05.268Z,7.17
2018-09-06T09:37:34.711Z,10.83
2018-09-06T09:40:03.530Z,9.77
2018-09-06T09:42:32.179Z,8.10
2018-09-06T09:45:01.049Z,7.17
2018-09-06T09:49:57.613Z,8.27
2018-09-06T09:52:26.196Z,9.60
2018-09-06T09:54:54.791Z,9.57
2018-09-06T09:57:23.666Z,6.20
2018-09-06T09:59:52.507Z,6.70
2018-09-06T10:02:26.998Z,8.17
2018-09-06T10:04:57.120Z,6.47
2018-09-06T10:07:31.209Z,8.53
2018-09-06T10:09:59.853Z,6.20
2018-09-06T10:12:28.476Z,6.40
2018-09-06T10:14:57.124Z,5.87
2018-09-06T10:17:26.180Z,5.70
2018-09-06T10:19:54.980Z,6.00
2018-09-06T10:22:23.887Z,5.90
2018-09-06T10:24:52.598Z,9.60
2018-09-06T10:27:21.260Z,7.00
2018-09-06T10:29:50.504Z,6.17
2018-09-06T10:32:19.008Z,6.60
2018-09-06T10:34:47.870Z,7.03
2018-09-06T10:37:16.419Z,7.27
2018-09-06T10:39:44.972Z,7.33
2018-09-06T10:42:14.371Z,7.10
2018-09-06T10:44:43.873Z,7.20
2018-09-06T10:47:13.023Z,7.73
2018-09-06T10:49:41.903Z,6.60
2018-09-06T10:52:11.326Z,12.40
2018-09-06T10:54:39.990Z,10.83
2018-09-06T10:57:09.824Z,5.80
2018-09-06T10:59:39.024Z,5.93
2018-09-06T11:02:08.559Z,6.43
2018-09-06T11:04:37.465Z,5.87
2018-09-06T11:07:06.382Z,6.10
2018-09-06T11:09:34.994Z,6.57
2018-09-06T11:12:03.835Z,10.43
2018-09-06T11:14:33.057Z,6.20
2018-09-06T11:17:01.772Z,8.07
2018-09-06T11:19:30.829Z,8.53
2018-09-06T11:21:59.928Z,6.17
2018-09-06T11:24:28.385Z,5.63
2018-09-06T11:26:57.245Z,5.30
2018-09-06T11:29:25.931Z,5.73
2018-09-06T11:31:54.758Z,6.07
2018-09-06T11:34:23.569Z,5.93
2018-09-06T11:36:52.765Z,6.30
2018-09-06T11:39:21.345Z,6.30
2018-09-06T11:41:50.061Z,5.10
2018-09-06T11:44:18.899Z,5.53
2018-09-06T11:46:47.726Z,6.43
2018-09-06T11:49:16.749Z,5.30
2018-09-06T11:51:45.290Z,6.03
2018-09-06T11:54:14.050Z,6.10
2018-09-06T11:56:43.556Z,6.87
2018-09-06T11:59:12.330Z,7.17
2018-09-06T12:01:40.993Z,7.03
2018-09-06T12:04:10.013Z,7.03
2018-09-06T12:06:38.718Z,7.43
2018-09-06T12:09:07.408Z,6.50
2018-09-06T12:11:37.127Z,7.63
2018-09-06T12:14:05.952Z,7.40
2018-09-06T12:16:34.554Z,6.47
2018-09-06T12:19:03.364Z,7.47
2018-09-06T12:21:31.940Z,8.93
2018-09-06T12:24:01.255Z,6.90
2018-09-06T12:26:29.945Z,7.70
2018-09-06T12:28:58.563Z,7.33
2018-09-06T12:31:27.735Z,6.10
2018-09-06T12:33:56.763Z,5.03
2018-09-06T12:36:26.381Z,5.63
2018-09-06T12:38:55.196Z,5.43
2018-09-06T12:41:23.874Z,6.17
2018-09-06T12:43:52.726Z,6.23
2018-09-06T12:46:22.107Z,5.60
2018-09-06T12:48:51.152Z,5.70
2018-09-06T12:51:19.635Z,5.60
2018-09-06T12:53:48.427Z,5.97
2018-09-06T12:56:16.915Z,5.93
2018-09-06T12:58:46.215Z,6.00
2018-09-06T13:01:14.980Z,7.17
2018-09-06T13:03:43.747Z,6.73
2018-09-06T13:06:12.679Z,6.97
2018-09-06T13:08:41.324Z,7.47
2018-09-06T13:11:10.483Z,5.93
2018-09-06T13:13:39.388Z,6.33
2018-09-06T13:16:08.467Z,6.20
2018-09-06T13:18:37.206Z,6.83
2018-09-06T13:21:06.022Z,7.10
2018-09-06T13:23:34.642Z,6.93
2018-09-06T13:26:03.700Z,7.77
2018-09-06T13:28:32.862Z,7.70
2018-09-06T13:31:02.226Z,6.63
2018-09-06T13:33:30.758Z,6.87
2018-09-06T13:35:59.392Z,7.47
2018-09-06T13:38:28.060Z,7.07
2018-09-06T13:40:56.798Z,6.97
2018-09-06T13:43:25.373Z,6.37
2018-09-06T13:45:54.464Z,7.60
2018-09-06T13:48:23.220Z,6.50
2018-09-06T13:50:52.044Z,6.53
2018-09-06T13:53:20.646Z,6.17
2018-09-06T13:55:49.535Z,7.70
2018-09-06T13:58:18.774Z,7.57
2018-09-06T14:00:47.955Z,7.50
2018-09-06T14:03:17.300Z,8.40
2018-09-06T14:05:46.045Z,7.67
2018-09-06T14:08:14.586Z,9.20
2018-09-06T14:10:43.244Z,7.10
2018-09-06T14:13:11.919Z,7.17
2018-09-06T14:15:40.640Z,7.73
2018-09-06T14:18:09.501Z,8.50
2018-09-06T14:20:38.182Z,6.03
2018-09-06T14:23:07.204Z,6.00
2018-09-06T14:25:35.935Z,7.60
2018-09-06T14:28:04.637Z,13.47
2018-09-06T14:30:33.424Z,19.00
2018-09-06T14:33:02.072Z,16.93
2018-09-06T14:35:30.835Z,16.03
2018-09-06T14:37:59.433Z,13.47
2018-09-06T14:40:28.909Z,9.87
2018-09-06T14:42:57.480Z,12.33
2018-09-06T14:45:26.129Z,12.47
2018-09-06T14:47:55.043Z,12.97
2018-09-06T14:50:23.662Z,15.40
2018-09-06T14:52:52.492Z,13.37
2018-09-06T14:55:21.407Z,17.90
2018-09-06T14:57:50.247Z,19.33
2018-09-06T15:00:19.154Z,20.70
2018-09-06T15:02:47.770Z,18.20
2018-09-06T15:05:17.285Z,19.10
2018-09-06T15:07:45.933Z,15.67
2018-09-06T15:10:14.414Z,11.93
2018-09-06T15:12:43.800Z,13.40
2018-09-06T15:15:12.636Z,8.97
2018-09-06T15:17:41.360Z,6.43
2018-09-06T15:20:10.539Z,5.93
2018-09-06T15:22:39.858Z,5.53
2018-09-06T15:25:08.830Z,8.33
2018-09-06T15:27:37.595Z,5.27
2018-09-06T15:30:07.262Z,5.33
2018-09-06T15:32:35.889Z,5.20
2018-09-06T15:35:04.661Z,4.87
2018-09-06T15:37:33.950Z,7.27
2018-09-06T15:40:03.386Z,4.83
2018-09-06T15:42:32.594Z,8.60
2018-09-06T15:45:01.596Z,8.37
2018-09-06T15:47:31.057Z,6.30
2018-09-06T15:50:00.203Z,7.77
2018-09-06T15:52:29.250Z,8.50
2018-09-06T15:54:58.589Z,12.03
2018-09-06T15:57:27.335Z,6.93
2018-09-06T15:59:56.255Z,7.43
2018-09-06T16:02:25.134Z,6.67
2018-09-06T16:04:54.481Z,6.93
2018-09-06T16:07:24.114Z,5.40
2018-09-06T16:09:54.081Z,7.30
2018-09-06T16:12:23.189Z,5.80
2018-09-06T16:14:53.512Z,7.27
2018-09-06T16:17:22.861Z,6.40
2018-09-06T16:19:52.300Z,9.00
2018-09-06T16:22:22.071Z,7.53
2018-09-06T16:24:51.425Z,6.83
2018-09-06T16:27:21.592Z,6.73
2018-09-06T16:29:50.670Z,10.03
2018-09-06T16:32:19.617Z,7.60
2018-09-06T16:34:48.363Z,7.40
2018-09-06T16:37:17.285Z,9.40
2018-09-06T16:39:46.527Z,8.50
2018-09-06T16:42:15.232Z,6.90
2018-09-06T16:44:43.942Z,7.23
2018-09-06T16:47:13.076Z,8.97
2018-09-06T16:49:41.713Z,9.77
2018-09-06T16:52:10.595Z,10.07
2018-09-06T16:54:39.438Z,10.97
2018-09-06T16:57:08.031Z,19.90
2018-09-06T16:59:37.345Z,13.13
2018-09-06T17:02:06.248Z,15.03
2018-09-06T17:04:35.053Z,8.60
2018-09-06T17:07:05.583Z,9.13
2018-09-06T17:09:35.510Z,11.33
2018-09-06T17:12:04.383Z,10.77
2018-09-06T17:14:33.387Z,7.83
2018-09-06T17:17:02.791Z,8.93
2018-09-06T17:19:31.489Z,9.50
2018-09-06T17:22:00.258Z,9.50
2018-09-06T17:24:29.554Z,14.30
2018-09-06T17:26:58.183Z,11.03
2018-09-06T17:29:27.017Z,9.57
2018-09-06T17:31:56.168Z,10.80
2018-09-06T17:34:25.185Z,8.47
2018-09-06T17:36:54.059Z,9.80
2018-09-06T17:39:23.833Z,9.00
2018-09-06T17:41:53.041Z,9.00
2018-09-06T17:44:24.437Z,10.03
2018-09-06T17:46:53.525Z,11.40
2018-09-06T17:49:22.360Z,9.73
2018-09-06T17:51:51.113Z,11.67
2018-09-06T17:54:20.270Z,8.90
2018-09-06T17:56:49.199Z,9.30
2018-09-06T17:59:19.682Z,10.07
2018-09-06T18:01:48.256Z,17.37
2018-09-06T18:04:17.132Z,11.10
2018-09-06T18:06:45.928Z,11.90
2018-09-06T18:09:15.989Z,13.17
2018-09-06T18:11:46.037Z,12.97
2018-09-06T18:14:15.360Z,12.83
2018-09-06T18:16:44.239Z,15.07
2018-09-06T18:19:13.599Z,14.67
2018-09-06T18:21:43.020Z,12.90
2018-09-06T18:24:11.789Z,11.67
2018-09-06T18:26:41.011Z,11.30
2018-09-06T18:29:10.293Z,14.20
2018-09-06T18:31:39.536Z,11.67
2018-09-06T18:34:08.307Z,13.20
2018-09-06T18:36:37.170Z,12.33
2018-09-06T18:39:06.991Z,11.57
2018-09-06T18:41:35.944Z,10.73
2018-09-06T18:44:04.661Z,12.43
2018-09-06T18:46:34.264Z,10.87
2018-09-06T18:49:04.447Z,10.90
2018-09-06T18:51:33.564Z,11.27
2018-09-06T18:54:02.919Z,11.23
2018-09-06T18:56:31.700Z,12.40
2018-09-06T18:59:00.754Z,10.60
2018-09-06T19:01:29.490Z,11.37
2018-09-06T19:03:58.362Z,10.80
2018-09-06T19:06:30.011Z,9.83
2018-09-06T19:08:59.065Z,11.87
2018-09-06T19:11:28.291Z,11.63
2018-09-06T19:13:57.232Z,11.13
2018-09-06T19:16:26.132Z,10.63
2018-09-06T19:18:55.072Z,11.93
2018-09-06T19:21:24.025Z,10.00
2018-09-06T19:23:52.989Z,10.90
2018-09-06T19:26:22.534Z,10.33
2018-09-06T19:28:51.092Z,10.30
2018-09-06T19:31:20.945Z,13.87
2018-09-06T19:33:49.886Z,11.50
2018-09-06T19:36:19.361Z,11.00
2018-09-06T19:38:48.572Z,11.27
2018-09-06T19:41:17.686Z,10.87
2018-09-06T19:43:46.987Z,9.73
2018-09-06T19:46:15.994Z,12.53
2018-09-06T19:48:45.602Z,11.73
2018-09-06T19:51:14.181Z,11.57
2018-09-06T19:53:43.063Z,12.27
2018-09-06T19:56:12.261Z,11.70
2018-09-06T19:58:41.032Z,12.50
2018-09-06T20:01:10.143Z,12.80
2018-09-06T20:03:39.700Z,11.70
2018-09-06T20:06:08.320Z,12.00
2018-09-06T20:08:36.905Z,16.17
2018-09-06T20:11:06.575Z,14.13
2018-09-06T20:13:35.604Z,13.33
2018-09-06T20:16:04.552Z,13.17
2018-09-06T20:18:33.220Z,11.73
2018-09-06T20:21:02.081Z,12.47
2018-09-06T20:23:31.563Z,14.07
2018-09-06T20:26:00.420Z,12.17
2018-09-06T20:28:29.201Z,12.77
2018-09-06T20:30:57.969Z,12.80
2018-09-06T20:33:27.389Z,12.73
2018-09-06T20:35:56.220Z,12.00
2018-09-06T20:38:25.833Z,13.63
2018-09-06T20:40:55.412Z,14.50
2018-09-06T20:43:24.383Z,12.97
2018-09-06T20:45:53.233Z,12.67
2018-09-06T20:48:21.971Z,11.73
2018-09-06T20:50:51.074Z,13.27
2018-09-06T20:53:20.530Z,11.93
2018-09-06T20:55:49.668Z,11.97
2018-09-06T20:58:18.592Z,12.23
2018-09-06T21:00:47.620Z,12.03
2018-09-06T21:03:16.618Z,10.57
2018-09-06T21:05:45.439Z,10.37
2018-09-06T21:08:14.217Z,11.33
2018-09-06T21:10:43.549Z,9.10
2018-09-06T21:13:12.163Z,12.53
2018-09-06T21:15:41.050Z,10.83
2018-09-06T21:18:10.068Z,11.40
2018-09-06T21:20:39.477Z,10.60
2018-09-06T21:23:08.649Z,9.93
2018-09-06T21:25:37.558Z,12.30
2018-09-06T21:28:06.521Z,9.47
2018-09-06T21:30:35.787Z,10.80
2018-09-06T21:33:04.572Z,10.70
2018-09-06T21:35:33.177Z,10.37
2018-09-06T21:38:01.784Z,8.93
2018-09-06T21:40:30.601Z,9.43
2018-09-06T21:43:00.143Z,12.40
2018-09-06T21:45:29.000Z,9.93
2018-09-06T21:47:57.671Z,9.60
2018-09-06T21:50:26.616Z,9.97
2018-09-06T21:52:55.825Z,10.23
2018-09-06T21:55:24.368Z,10.13
2018-09-06T21:57:52.910Z,11.03
2018-09-06T22:00:21.505Z,11.97
2018-09-06T22:02:55.511Z,10.30
2018-09-06T22:05:24.101Z,16.63
2018-09-06T22:07:52.700Z,9.83
2018-09-06T22:10:22.321Z,11.60
2018-09-06T22:12:52.100Z,8.77
2018-09-06T22:15:21.135Z,10.47
2018-09-06T22:17:49.879Z,10.70
2018-09-06T22:20:19.200Z,10.30
2018-09-06T22:22:48.360Z,12.10
2018-09-06T22:25:16.966Z,9.30
2018-09-06T22:27:45.580Z,11.97
2018-09-06T22:30:14.171Z,11.10
2018-09-06T22:32:42.779Z,10.47
2018-09-06T22:35:11.459Z,8.93
2018-09-06T22:37:40.641Z,13.23
2018-09-06T22:40:10.178Z,10.13
2018-09-06T22:42:38.869Z,10.80
2018-09-06T22:45:07.999Z,12.97
2018-09-06T22:47:36.567Z,12.43
2018-09-06T22:50:06.120Z,9.70
2018-09-06T22:52:35.388Z,11.40
2018-09-06T22:55:04.043Z,12.53
2018-09-06T22:57:33.005Z,12.07
2018-09-06T23:00:01.678Z,12.13
2018-09-06T23:02:36.236Z,12.17
2018-09-06T23:05:04.827Z,12.50
2018-09-06T23:07:33.424Z,14.17
2018-09-06T23:10:02.846Z,10.23
2018-09-06T23:12:32.043Z,10.03
2018-09-06T23:15:00.778Z,11.03
2018-09-06T23:17:29.411Z,9.97
2018-09-06T23:19:58.623Z,10.20
2018-09-06T23:22:27.196Z,12.30
2018-09-06T23:24:55.864Z,9.90
2018-09-06T23:27:26.391Z,10.27
2018-09-06T23:29:55.679Z,10.73
2018-09-06T23:32:24.253Z,14.50
2018-09-06T23:34:53.711Z,19.43
2018-09-06T23:37:22.227Z,17.03
2018-09-06T23:39:50.758Z,17.07
2018-09-06T23:42:19.285Z,13.70
2018-09-06T23:44:47.868Z,14.23
2018-09-06T23:47:16.364Z,17.10
2018-09-06T23:49:44.959Z,15.40
2018-09-06T23:52:13.519Z,12.60
2018-09-06T23:54:42.000Z,12.77
2018-09-06T23:57:11.372Z,16.43
2018-09-06T23:59:39.879Z,13.73
